Time;durP1;ratioP1;P1;durP2;ratioP2;P2;SDS_P1;SDS_P2;PMS_P1;PMS_P2;Temp;Humidity;BMP_temperature;BMP_pressure;BME280_temperature;BME280_humidity;BME280_pressure;Samples;Min_cycle;Max_cycle;Signal;HPM_P1;HPM_P2
2023/04/05 00:00:43;;;;;;;9.90;6.15;;;;;;;6.88;58.08;102361.69;5075517;28;20036;-88
2023/04/05 00:03:09;;;;;;;8.43;5.60;;;;;;;6.89;58.09;102367.00;5075814;28;20032;-88
2023/04/05 00:05:35;;;;;;;11.07;6.35;;;;;;;6.86;57.54;102372.13;5058224;28;20492;-88
2023/04/05 00:08:03;;;;;;;8.95;5.95;;;;;;;6.79;58.72;102370.00;5076260;28;20040;-87
2023/04/05 00:10:31;;;;;;;13.27;5.95;;;;;;;6.67;57.66;102375.53;5074718;28;20064;-88
2023/04/05 00:12:57;;;;;;;12.25;6.50;;;;;;;6.44;58.00;102344.56;5075925;28;20029;-88
2023/04/05 00:15:23;;;;;;;9.07;6.03;;;;;;;6.64;57.82;102374.50;5074547;28;20021;-87
2023/04/05 00:17:48;;;;;;;11.60;6.10;;;;;;;6.55;58.05;102364.38;5074577;28;20029;-88
2023/04/05 00:20:14;;;;;;;11.13;6.20;;;;;;;6.56;58.42;102376.72;5074825;28;20154;-88
2023/04/05 00:22:43;;;;;;;11.93;6.13;;;;;;;6.58;58.30;102380.31;5075676;28;20358;-87
2023/04/05 00:25:09;;;;;;;11.05;6.15;;;;;;;6.35;58.02;102330.97;5075723;28;20036;-89
2023/04/05 00:27:34;;;;;;;9.27;6.15;;;;;;;6.56;58.28;102374.09;5075579;28;20037;-87
2023/04/05 00:30:00;;;;;;;8.90;5.97;;;;;;;6.49;58.63;102353.59;5074251;28;20354;-87
2023/04/05 00:32:25;;;;;;;10.45;6.35;;;;;;;6.58;59.02;102367.19;5074053;28;20033;-87
2023/04/05 00:34:51;;;;;;;9.77;6.15;;;;;;;6.48;58.61;102359.66;5075545;28;20040;-88
2023/04/05 00:37:16;;;;;;;9.90;5.82;;;;;;;6.48;58.78;102360.56;5074202;28;20428;-88
2023/04/05 00:39:42;;;;;;;10.15;6.53;;;;;;;6.13;58.42;102321.09;5073877;28;20037;-89
2023/04/05 00:42:08;;;;;;;11.30;6.65;;;;;;;6.18;59.20;102354.63;5057572;28;20032;-88
2023/04/05 00:44:34;;;;;;;10.80;7.07;;;;;;;5.96;59.00;102325.44;5074564;28;20174;-87
2023/04/05 00:47:06;;;;;;;10.10;6.43;;;;;;;6.05;59.56;102359.13;5075157;28;20040;-87
2023/04/05 00:49:34;;;;;;;10.18;6.03;;;;;;;5.98;59.62;102355.28;5073796;28;20422;-87
2023/04/05 00:52:00;;;;;;;10.43;6.70;;;;;;;5.90;59.98;102338.19;5073676;28;20445;-88
2023/04/05 00:54:27;;;;;;;10.15;6.00;;;;;;;5.85;59.67;102323.91;5057118;28;20067;-88
2023/04/05 00:56:54;;;;;;;12.27;5.57;;;;;;;5.99;60.72;102341.31;5057177;28;20357;-88
2023/04/05 00:59:20;;;;;;;9.48;6.15;;;;;;;6.11;59.71;102349.84;5074578;28;20025;-87
2023/04/05 01:01:53;;;;;;;9.23;6.00;;;;;;;6.02;59.76;102333.63;5075035;28;20036;-87
2023/04/05 01:04:24;;;;;;;14.35;6.32;;;;;;;5.88;60.17;102326.72;5073694;28;20028;-87
2023/04/05 01:07:22;;;;;;;12.27;7.25;;;;;;;5.89;59.75;102360.91;5075025;28;20037;-87
2023/04/05 01:09:50;;;;;;;10.05;6.00;;;;;;;5.79;60.37;102358.59;5073399;28;20032;-87
2023/04/05 01:12:19;;;;;;;9.48;6.13;;;;;;;5.56;60.42;102325.84;5073568;28;20032;-87
2023/04/05 01:14:49;;;;;;;9.35;6.38;;;;;;;5.73;60.58;102356.53;5073219;28;20033;-87
2023/04/05 01:17:20;;;;;;;9.70;5.90;;;;;;;5.57;60.94;102314.56;5073411;28;20384;-87
2023/04/05 01:19:53;;;;;;;10.77;6.05;;;;;;;5.77;60.93;102349.72;5057527;28;20029;-87
2023/04/05 01:22:55;;;;;;;11.25;6.38;;;;;;;5.89;60.13;102352.13;5074593;28;20512;-87
2023/04/05 01:26:18;;;;;;;10.25;6.28;;;;;;;5.89;60.19;102346.88;5073271;28;20034;-87
2023/04/05 01:29:03;;;;;;;11.87;6.47;;;;;;;5.83;60.39;102347.47;4995809;28;20217;-87
2023/04/05 01:32:07;;;;;;;9.13;5.75;;;;;;;5.87;59.85;102343.28;4995924;28;20284;-87
2023/04/05 01:34:51;;;;;;;8.82;5.85;;;;;;;5.85;60.15;102337.03;5046552;28;20098;-87
2023/04/05 01:37:19;;;;;;;10.15;6.40;;;;;;;5.52;60.44;102308.16;5072958;28;20067;-88
2023/04/05 01:39:49;;;;;;;10.45;6.50;;;;;;;5.45;60.52;102314.81;5073980;28;20048;-87
2023/04/05 01:42:20;;;;;;;12.73;6.30;;;;;;;5.36;60.83;102326.50;5074181;28;20036;-88
2023/04/05 01:44:46;;;;;;;10.73;6.65;;;;;;;5.33;60.58;102323.69;5072966;28;20079;-88
2023/04/05 01:47:11;;;;;;;9.90;6.38;;;;;;;5.08;61.53;102301.34;5056119;28;20511;-88
2023/04/05 01:49:36;;;;;;;10.32;6.45;;;;;;;5.01;62.08;102296.56;5055979;28;20028;-87
2023/04/05 01:52:02;;;;;;;9.15;6.07;;;;;;;5.06;61.87;102308.25;5072730;28;20033;-87
2023/04/05 01:54:27;;;;;;;10.13;6.30;;;;;;;5.13;62.06;102307.75;5072501;28;20389;-88
2023/04/05 01:56:53;;;;;;;9.88;6.20;;;;;;;5.21;61.69;102321.28;5055542;28;20028;-87
2023/04/05 01:59:18;;;;;;;13.10;6.55;;;;;;;5.22;62.72;102323.09;5072493;28;20036;-88
2023/04/05 02:01:43;;;;;;;9.65;6.00;;;;;;;5.19;62.10;102318.59;5072838;28;20107;-88
2023/04/05 02:04:09;;;;;;;11.88;6.50;;;;;;;5.14;62.41;102317.44;5072457;28;20039;-87
2023/04/05 02:06:34;;;;;;;12.98;6.45;;;;;;;5.12;62.35;102315.53;5072338;28;20477;-87
2023/04/05 02:09:00;;;;;;;10.45;6.45;;;;;;;5.10;61.77;102310.22;5074362;28;20040;-87
2023/04/05 02:11:25;;;;;;;9.52;6.50;;;;;;;5.14;61.90;102312.19;5072575;28;20052;-87
2023/04/05 02:13:51;;;;;;;11.02;6.50;;;;;;;5.18;62.74;102319.41;5072343;28;20127;-87
2023/04/05 02:16:17;;;;;;;12.27;6.30;;;;;;;5.20;62.80;102314.25;5073832;28;20526;-86
2023/04/05 02:18:49;;;;;;;11.75;6.10;;;;;;;5.04;62.57;102283.66;5056537;28;20491;-87
2023/04/05 02:21:15;;;;;;;9.95;6.35;;;;;;;5.17;62.15;102314.97;5065224;28;20043;-87
2023/04/05 02:23:41;;;;;;;11.75;6.47;;;;;;;5.14;61.85;102308.66;5081579;28;20056;-89
2023/04/05 02:26:06;;;;;;;10.82;6.47;;;;;;;5.01;62.23;102309.69;5062035;28;20032;-86
2023/04/05 02:28:32;;;;;;;10.20;6.47;;;;;;;4.88;62.42;102310.72;5055895;28;20032;-86
2023/04/05 02:30:57;;;;;;;12.88;6.63;;;;;;;4.78;62.52;102306.66;5072103;28;20472;-87
2023/04/05 02:33:22;;;;;;;9.80;6.22;;;;;;;4.63;62.19;102279.59;5072190;28;20028;-87
2023/04/05 02:35:50;;;;;;;10.35;6.47;;;;;;;4.71;62.59;102301.91;5055419;28;20028;-87
2023/04/05 02:38:16;;;;;;;10.05;6.28;;;;;;;4.68;62.93;102308.66;5073541;28;20032;-87
2023/04/05 02:40:41;;;;;;;11.85;6.50;;;;;;;4.68;62.63;102309.56;5055638;28;20043;-87
2023/04/05 02:43:07;;;;;;;9.35;6.38;;;;;;;4.76;62.73;102308.28;5055312;28;20068;-87
2023/04/05 02:45:32;;;;;;;10.60;6.65;;;;;;;4.71;63.19;102285.25;5072408;28;20471;-86
2023/04/05 02:47:58;;;;;;;13.10;6.70;;;;;;;4.84;63.48;102295.66;5055276;28;20128;-86
2023/04/05 02:50:23;;;;;;;9.38;6.15;;;;;;;4.91;63.00;102307.34;5055137;28;20047;-87
2023/04/05 02:52:49;;;;;;;16.67;6.50;;;;;;;4.71;62.00;102277.41;5055216;28;20028;-87
2023/04/05 02:55:15;;;;;;;10.43;6.65;;;;;;;4.64;62.64;102281.41;5073169;28;20107;-88
2023/04/05 02:57:42;;;;;;;10.73;6.75;;;;;;;4.73;62.92;102299.34;5071940;28;20511;-88
2023/04/05 03:00:10;;;;;;;12.20;6.55;;;;;;;4.73;62.67;102295.03;5071843;28;20029;-87
2023/04/05 03:02:36;;;;;;;9.75;6.32;;;;;;;4.71;62.86;102291.44;5071818;28;20051;-87
2023/04/05 03:05:02;;;;;;;9.90;6.80;;;;;;;4.61;62.63;102282.94;5071500;28;20053;-87
2023/04/05 03:07:28;;;;;;;11.27;6.68;;;;;;;4.50;63.56;102292.81;5072640;28;20078;-86
2023/04/05 03:09:53;;;;;;;11.35;6.57;;;;;;;4.31;64.04;102272.47;5058556;28;20052;-86
2023/04/05 03:12:19;;;;;;;10.80;6.45;;;;;;;4.34;64.04;102284.84;5075877;28;20536;-86
2023/04/05 03:14:45;;;;;;;10.55;6.60;;;;;;;4.32;62.92;102283.84;5075744;28;20530;-86
2023/04/05 03:17:11;;;;;;;12.73;6.50;;;;;;;4.07;64.04;102252.69;5075789;28;20032;-86
2023/04/05 03:19:37;;;;;;;11.73;6.38;;;;;;;4.22;64.23;102261.47;5077231;28;20051;-86
2023/04/05 03:22:03;;;;;;;11.30;6.43;;;;;;;4.36;63.47;102278.88;5076875;28;20032;-86
2023/04/05 03:24:28;;;;;;;11.88;6.30;;;;;;;4.23;63.25;102253.69;5075566;28;20029;-86
2023/04/05 03:26:53;;;;;;;14.70;7.07;;;;;;;4.43;64.39;102269.69;5077124;28;20029;-86
2023/04/05 03:29:19;;;;;;;9.98;6.70;;;;;;;4.40;64.00;102267.78;5075172;28;20090;-86
2023/04/05 03:31:44;;;;;;;12.80;7.07;;;;;;;4.36;64.06;102264.91;5075290;28;20038;-86
2023/04/05 03:34:10;;;;;;;15.88;6.55;;;;;;;4.27;63.40;102240.00;5075059;28;20131;-86
2023/04/05 03:36:41;;;;;;;10.85;6.80;;;;;;;4.26;63.44;102258.22;5075129;28;20062;-86
2023/04/05 03:39:11;;;;;;;12.20;6.88;;;;;;;4.20;64.26;102266.63;5076516;28;20039;-86
2023/04/05 03:41:38;;;;;;;12.43;6.57;;;;;;;4.27;64.24;102274.00;5076864;28;20032;-86
2023/04/05 03:44:04;;;;;;;9.32;5.82;;;;;;;4.36;64.06;102270.13;5075044;28;20032;-86
2023/04/05 03:46:30;;;;;;;10.55;6.35;;;;;;;4.50;64.07;102270.13;5075085;28;20029;-86
2023/04/05 03:48:59;;;;;;;10.18;6.57;;;;;;;4.42;63.46;102246.94;5074940;28;20039;-86
2023/04/05 03:51:26;;;;;;;9.63;6.05;;;;;;;4.53;63.33;102266.78;5076227;28;20029;-86
2023/04/05 03:53:51;;;;;;;10.25;6.47;;;;;;;4.50;62.99;102264.91;5074969;28;20503;-86
2023/04/05 03:56:17;;;;;;;11.63;6.70;;;;;;;4.44;62.25;102267.16;5074864;28;20064;-86
2023/04/05 03:58:43;;;;;;;12.57;7.13;;;;;;;4.40;63.38;102273.00;5075066;28;20036;-86
2023/04/05 04:01:08;;;;;;;10.73;6.97;;;;;;;4.34;62.91;102253.44;5074716;28;20052;-86
2023/04/05 04:03:36;;;;;;;9.70;6.60;;;;;;;4.25;63.44;102241.63;5074627;28;20032;-86
2023/04/05 04:06:02;;;;;;;12.80;6.65;;;;;;;4.26;63.57;102258.22;5058287;28;20141;-86
2023/04/05 04:08:28;;;;;;;11.18;6.82;;;;;;;4.22;63.85;102265.00;5074363;28;20103;-85
2023/04/05 04:10:53;;;;;;;10.00;6.63;;;;;;;4.19;63.73;102262.19;5058079;28;20525;-86
2023/04/05 04:13:18;;;;;;;11.35;6.68;;;;;;;3.98;64.36;102222.59;5074433;28;20032;-86
2023/04/05 04:15:45;;;;;;;11.25;6.78;;;;;;;4.10;63.90;102260.75;5074619;28;20107;-86
2023/04/05 04:18:13;;;;;;;11.80;6.57;;;;;;;4.10;63.74;102258.13;5074615;28;20032;-86
2023/04/05 04:20:39;;;;;;;10.93;7.00;;;;;;;4.06;63.30;102256.13;5074235;28;20041;-86
2023/04/05 04:23:09;;;;;;;11.30;7.10;;;;;;;3.98;63.85;102242.59;5074517;28;20030;-86
2023/04/05 04:25:37;;;;;;;12.63;7.35;;;;;;;3.90;64.96;102238.66;5058436;28;20028;-86
2023/04/05 04:28:08;;;;;;;12.13;6.93;;;;;;;3.89;64.88;102250.78;5075740;28;20547;-85
2023/04/05 04:30:34;;;;;;;15.68;7.28;;;;;;;3.89;64.94;102252.50;5075697;28;20384;-86
2023/04/05 04:33:03;;;;;;;11.27;7.03;;;;;;;3.85;64.83;102253.13;5075295;28;20115;-86
2023/04/05 04:35:33;;;;;;;12.43;6.65;;;;;;;3.76;64.71;102246.53;5075513;28;20032;-86
2023/04/05 04:38:01;;;;;;;10.82;6.72;;;;;;;3.74;64.48;102257.72;5075066;28;20396;-86
2023/04/05 04:40:37;;;;;;;12.05;6.60;;;;;;;3.65;64.78;102249.31;5074062;28;20040;-87
2023/04/05 04:43:08;;;;;;;11.48;6.28;;;;;;;3.69;64.69;102256.56;5075410;28;20177;-86
2023/04/05 04:45:36;;;;;;;10.00;6.47;;;;;;;3.72;64.61;102260.22;5075288;28;20112;-86
2023/04/05 04:48:04;;;;;;;11.32;6.88;;;;;;;3.66;65.05;102246.78;5075234;28;20026;-86
2023/04/05 04:50:30;;;;;;;14.95;7.00;;;;;;;3.73;64.86;102256.84;5073821;28;20495;-86
2023/04/05 04:52:58;;;;;;;12.65;6.45;;;;;;;3.71;64.89;102257.53;5057104;28;20044;-87
2023/04/05 04:55:26;;;;;;;11.15;6.65;;;;;;;3.71;65.20;102261.03;5073624;28;20511;-86
2023/04/05 04:57:52;;;;;;;12.50;6.75;;;;;;;3.74;64.73;102263.84;5073269;28;20079;-86
2023/04/05 05:00:19;;;;;;;12.25;6.40;;;;;;;3.70;64.15;102251.41;5072880;28;20024;-86
2023/04/05 05:02:45;;;;;;;11.07;7.15;;;;;;;3.73;64.17;102253.31;5056614;28;20479;-86
2023/04/05 05:05:11;;;;;;;11.48;7.03;;;;;;;3.66;64.64;102257.25;5075220;28;20131;-89
2023/04/05 05:07:42;;;;;;;11.63;7.13;;;;;;;3.55;64.93;102252.16;5074586;28;20044;-86
2023/04/05 05:10:10;;;;;;;11.63;6.90;;;;;;;3.51;65.29;102246.78;5074032;28;20413;-86
2023/04/05 05:12:36;;;;;;;13.00;7.20;;;;;;;3.48;64.85;102237.84;5074778;28;20039;-86
2023/04/05 05:15:02;;;;;;;13.48;7.10;;;;;;;3.57;64.87;102258.41;5072787;28;20115;-86
2023/04/05 05:17:27;;;;;;;12.75;7.05;;;;;;;3.53;65.23;102257.31;5057912;28;20457;-86
2023/04/05 05:19:53;;;;;;;11.23;7.00;;;;;;;3.48;64.80;102251.81;5056219;28;20033;-86
2023/04/05 05:22:21;;;;;;;15.65;7.88;;;;;;;3.42;65.21;102248.78;5056227;28;20028;-86
2023/04/05 05:24:46;;;;;;;13.77;7.22;;;;;;;3.32;65.63;102228.13;5072742;28;20460;-86
2023/04/05 05:27:12;;;;;;;10.73;7.15;;;;;;;3.43;65.68;102239.28;5073243;28;20115;-87
2023/04/05 05:29:37;;;;;;;11.65;6.93;;;;;;;3.62;65.53;102246.53;5074516;28;20090;-86
2023/04/05 05:32:03;;;;;;;12.32;7.47;;;;;;;3.35;64.75;102186.53;5055186;28;20087;-86
2023/04/05 05:34:28;;;;;;;13.20;7.57;;;;;;;3.89;65.30;102239.44;5055861;28;20056;-86
2023/04/05 05:36:54;;;;;;;11.27;7.32;;;;;;;3.99;64.87;102239.19;5055816;28;20082;-86
2023/04/05 05:39:20;;;;;;;13.18;7.50;;;;;;;4.08;64.44;102242.34;5072397;28;20032;-86
2023/04/05 05:41:45;;;;;;;13.95;7.55;;;;;;;4.09;64.41;102236.31;5075086;28;20035;-86
2023/04/05 05:44:11;;;;;;;14.73;7.53;;;;;;;4.06;64.16;102211.69;5072399;28;20040;-86
2023/04/05 05:46:36;;;;;;;11.40;7.55;;;;;;;4.26;63.70;102221.59;5055383;28;20487;-85
2023/04/05 05:49:04;;;;;;;11.82;7.18;;;;;;;4.46;64.13;102248.94;5073310;28;20067;-85
2023/04/05 05:51:31;;;;;;;11.07;7.65;;;;;;;4.44;63.98;102225.28;5072228;28;20036;-84
2023/04/05 05:53:56;;;;;;;12.98;7.50;;;;;;;4.71;64.17;102245.97;5055414;28;20043;-85
2023/04/05 05:56:24;;;;;;;14.57;7.85;;;;;;;4.70;64.16;102225.84;5073704;28;20028;-86
2023/04/05 05:58:49;;;;;;;18.20;7.90;;;;;;;4.85;63.85;102252.03;5072129;28;20127;-87
2023/04/05 06:01:15;;;;;;;13.00;8.20;;;;;;;4.87;63.69;102247.75;5055605;28;20075;-86
2023/04/05 06:03:40;;;;;;;14.93;8.48;;;;;;;4.91;63.62;102241.88;5071987;28;20136;-89
2023/04/05 06:06:09;;;;;;;13.38;7.60;;;;;;;5.00;64.20;102256.38;5054940;28;20128;-85
2023/04/05 06:08:35;;;;;;;15.80;8.05;;;;;;;5.02;64.34;102244.28;5055592;28;20033;-85
2023/04/05 06:11:04;;;;;;;13.68;7.72;;;;;;;5.18;65.51;102245.13;5073977;28;20032;-86
2023/04/05 06:13:29;;;;;;;13.15;7.82;;;;;;;5.37;64.39;102250.56;5072031;28;20040;-87
2023/04/05 06:15:55;;;;;;;12.98;7.72;;;;;;;5.59;63.67;102247.38;5072047;28;20032;-87
2023/04/05 06:18:20;;;;;;;13.38;8.10;;;;;;;5.76;62.52;102253.50;5072666;28;20472;-87
2023/04/05 06:20:46;;;;;;;11.75;8.10;;;;;;;5.99;61.12;102247.78;5055596;28;20037;-87
2023/04/05 06:23:12;;;;;;;12.88;7.93;;;;;;;6.09;61.72;102246.53;5071731;28;20078;-88
2023/04/05 06:25:38;;;;;;;12.88;8.32;;;;;;;6.32;61.62;102252.06;5072451;28;20487;-87
2023/04/05 06:28:05;;;;;;;17.23;8.50;;;;;;;6.48;60.73;102254.63;5074397;28;20036;-87
2023/04/05 06:30:33;;;;;;;13.95;8.52;;;;;;;6.68;60.04;102252.97;5073476;28;20111;-86
2023/04/05 06:32:59;;;;;;;12.38;8.30;;;;;;;6.69;57.99;102216.28;5076192;28;20033;-87
2023/04/05 06:35:25;;;;;;;17.95;8.50;;;;;;;6.97;58.27;102250.03;5055464;28;20036;-87
2023/04/05 06:37:51;;;;;;;12.10;8.25;;;;;;;7.13;56.90;102253.41;5072643;28;20075;-87
2023/04/05 06:40:18;;;;;;;13.32;8.63;;;;;;;7.11;56.57;102212.97;5078182;28;20032;-87
2023/04/05 06:42:43;;;;;;;15.25;9.15;;;;;;;7.41;56.19;102253.88;5076401;28;20031;-88
2023/04/05 06:45:09;;;;;;;13.63;8.57;;;;;;;7.46;55.77;102244.47;5056516;28;20040;-87
2023/04/05 06:47:37;;;;;;;15.30;8.60;;;;;;;7.33;55.10;102197.41;5073447;28;20119;-87
2023/04/05 06:50:04;;;;;;;13.07;7.90;;;;;;;7.48;53.41;102226.09;5073357;28;20032;-88
2023/04/05 06:52:30;;;;;;;16.05;8.60;;;;;;;7.76;53.54;102251.94;5071513;28;20465;-88
2023/04/05 06:54:55;;;;;;;12.05;8.10;;;;;;;7.92;52.49;102250.88;5071840;28;20094;-87
2023/04/05 06:57:21;;;;;;;16.17;8.63;;;;;;;8.04;52.60;102249.66;5056910;28;20416;-88
2023/04/05 06:59:46;;;;;;;12.05;8.05;;;;;;;8.04;50.93;102233.88;5076404;28;20033;-89
2023/04/05 07:02:12;;;;;;;16.38;8.98;;;;;;;8.28;51.94;102263.00;5071710;28;20090;-89
2023/04/05 07:04:38;;;;;;;11.35;8.20;;;;;;;8.40;50.42;102261.78;5071803;28;20037;-88
2023/04/05 07:07:04;;;;;;;13.80;8.50;;;;;;;8.54;50.07;102260.59;5071572;28;20032;-88
2023/04/05 07:09:34;;;;;;;13.65;8.88;;;;;;;8.60;49.84;102252.94;5072447;28;20029;-88
2023/04/05 07:12:02;;;;;;;12.70;8.25;;;;;;;8.78;50.53;102258.09;5071804;28;20029;-88
2023/04/05 07:14:32;;;;;;;13.95;8.15;;;;;;;9.00;49.55;102257.22;5072792;28;20028;-87
2023/04/05 07:16:58;;;;;;;13.68;8.57;;;;;;;9.22;49.61;102266.88;5072719;28;20563;-88
2023/04/05 07:19:23;;;;;;;14.57;8.60;;;;;;;9.43;49.13;102251.88;5072278;28;20028;-87
2023/04/05 07:21:49;;;;;;;13.07;8.40;;;;;;;9.69;48.62;102254.59;5071384;28;20115;-88
2023/04/05 07:24:14;;;;;;;15.52;8.52;;;;;;;9.74;48.21;102234.53;5071143;28;20089;-89
2023/04/05 07:26:40;;;;;;;15.13;8.50;;;;;;;9.98;47.59;102235.41;5038615;28;20397;-87
2023/04/05 07:29:07;;;;;;;16.35;8.23;;;;;;;10.33;46.33;102256.91;5070516;28;20074;-87
2023/04/05 07:31:33;;;;;;;12.27;8.10;;;;;;;10.67;45.37;102258.03;5070880;28;20397;-87
2023/04/05 07:33:59;;;;;;;12.02;8.35;;;;;;;10.97;45.52;102255.50;5070980;28;20036;-87
2023/04/05 07:36:29;;;;;;;14.63;8.95;;;;;;;11.21;44.97;102256.25;5054399;28;20037;-87
2023/04/05 07:38:55;;;;;;;11.80;7.72;;;;;;;11.34;44.28;102243.38;5070894;28;20480;-88
2023/04/05 07:41:22;;;;;;;12.77;8.18;;;;;;;11.64;44.42;102251.31;5070761;28;20120;-85
2023/04/05 07:43:48;;;;;;;13.98;8.23;;;;;;;11.83;43.78;102256.34;5070959;28;20024;-87
2023/04/05 07:46:14;;;;;;;11.48;7.55;;;;;;;11.93;43.02;102249.53;5071769;28;20039;-86
2023/04/05 07:48:40;;;;;;;13.13;8.18;;;;;;;12.17;42.06;102255.53;5071005;28;20035;-87
2023/04/05 07:51:09;;;;;;;14.40;8.57;;;;;;;12.05;41.95;102214.56;5070933;28;20384;-87
2023/04/05 07:53:36;;;;;;;12.02;8.52;;;;;;;11.90;41.96;102175.28;5070583;28;20124;-86
2023/04/05 07:56:14;;;;;;;14.60;8.45;;;;;;;12.19;41.38;102195.50;5075339;28;20131;-86
2023/04/05 07:58:39;;;;;;;12.27;8.10;;;;;;;12.45;40.96;102209.41;5074710;28;20036;-86
2023/04/05 08:01:06;;;;;;;12.93;7.53;;;;;;;12.80;39.58;102219.97;5073876;28;20427;-86
2023/04/05 08:03:35;;;;;;;12.75;7.82;;;;;;;12.92;39.55;102187.53;5074437;28;20029;-86
2023/04/05 08:06:21;;;;;;;13.20;8.45;;;;;;;13.30;41.07;102216.72;5075088;28;20048;-86
2023/04/05 08:08:47;;;;;;;13.82;8.05;;;;;;;13.34;38.35;102199.97;5072344;28;20500;-90
2023/04/05 08:11:12;;;;;;;12.82;8.10;;;;;;;13.40;37.96;102186.81;5075623;28;20039;-84
2023/04/05 08:13:40;;;;;;;12.63;7.97;;;;;;;13.65;37.87;102188.22;5063799;28;20030;-82
2023/04/05 08:16:07;;;;;;;13.90;8.25;;;;;;;13.81;37.03;102198.28;5053815;28;20032;-85
2023/04/05 08:18:32;;;;;;;12.85;7.97;;;;;;;14.16;36.94;102211.31;5055812;28;20104;-86
2023/04/05 08:21:07;;;;;;;15.50;8.40;;;;;;;14.43;37.12;102230.44;5055439;28;20064;-86
2023/04/05 08:23:34;;;;;;;15.40;8.27;;;;;;;14.32;36.08;102207.19;5054088;28;20033;-87
2023/04/05 08:26:00;;;;;;;15.60;8.70;;;;;;;14.41;35.67;102200.25;5055134;28;20048;-87
2023/04/05 08:28:26;;;;;;;19.75;8.10;;;;;;;14.62;35.29;102209.47;5057025;28;20029;-88
2023/04/05 08:30:58;;;;;;;13.20;8.10;;;;;;;14.63;34.49;102180.22;5038583;28;20029;-87
2023/04/05 08:33:29;;;;;;;15.15;8.05;;;;;;;14.92;34.95;102209.06;5054868;28;20426;-87
2023/04/05 08:35:55;;;;;;;14.52;8.85;;;;;;;15.06;34.59;102242.09;5069797;28;20040;-87
2023/04/05 08:38:21;;;;;;;14.73;8.07;;;;;;;14.74;34.09;102199.03;5052924;28;20025;-86
2023/04/05 08:40:50;;;;;;;14.13;8.55;;;;;;;14.74;35.18;102197.25;5054571;28;20108;-88
2023/04/05 08:43:36;;;;;;;13.60;7.75;;;;;;;15.21;34.61;102239.66;5053635;28;20040;-87
2023/04/05 08:46:07;;;;;;;16.52;8.85;;;;;;;14.93;33.75;102166.47;5053548;28;20125;-86
2023/04/05 08:48:35;;;;;;;15.45;8.80;;;;;;;15.13;33.56;102205.81;5054050;28;20120;-84
2023/04/05 08:51:00;;;;;;;12.68;8.05;;;;;;;15.21;33.95;102202.38;5074417;28;20037;-86
2023/04/05 08:53:29;;;;;;;15.00;8.48;;;;;;;15.27;35.17;102173.16;5072875;28;20040;-85
2023/04/05 08:55:59;;;;;;;14.60;8.30;;;;;;;15.62;34.13;102212.63;5074404;28;20462;-85
2023/04/05 08:58:27;;;;;;;12.85;7.75;;;;;;;15.62;32.62;102233.06;5075038;28;20032;-83
2023/04/05 09:00:55;;;;;;;12.73;8.02;;;;;;;15.81;32.79;102224.47;5073948;28;20424;-85
2023/04/05 09:03:28;;;;;;;13.30;8.25;;;;;;;15.87;32.72;102212.97;5073100;28;20546;-84
2023/04/05 09:05:57;;;;;;;12.65;8.10;;;;;;;15.79;31.67;102188.88;5071743;28;20056;-85
2023/04/05 09:08:23;;;;;;;10.98;7.50;;;;;;;16.23;30.55;102221.34;5072942;28;20036;-85
2023/04/05 09:10:52;;;;;;;14.23;8.60;;;;;;;16.28;31.99;102200.94;5072789;28;20499;-85
2023/04/05 09:13:19;;;;;;;16.63;8.63;;;;;;;16.54;32.18;102202.94;5056608;28;20131;-84
2023/04/05 09:15:45;;;;;;;12.02;8.63;;;;;;;16.61;32.04;102194.06;5073340;28;20067;-84
2023/04/05 09:18:11;;;;;;;15.52;8.93;;;;;;;16.85;31.90;102203.19;5074019;28;20468;-85
2023/04/05 09:20:37;;;;;;;13.77;8.10;;;;;;;16.98;30.75;102170.31;5072688;28;20052;-85
2023/04/05 09:23:02;;;;;;;12.50;8.07;;;;;;;17.34;30.34;102216.78;5073103;28;20461;-85
2023/04/05 09:25:31;;;;;;;14.07;8.23;;;;;;;17.37;32.21;102209.69;5072666;28;20059;-84
2023/04/05 09:27:59;;;;;;;11.98;7.80;;;;;;;17.48;29.58;102193.72;5072484;28;20123;-84
2023/04/05 09:30:26;;;;;;;12.07;7.60;;;;;;;17.53;29.04;102206.22;5072155;28;20032;-84
2023/04/05 09:32:53;;;;;;;14.68;8.27;;;;;;;17.50;28.88;102211.53;5055793;28;20029;-84
2023/04/05 09:35:21;;;;;;;13.30;8.00;;;;;;;17.27;27.18;102200.75;5071588;28;20044;-85
2023/04/05 09:37:52;;;;;;;12.35;8.15;;;;;;;17.22;26.09;102186.50;5073822;28;20036;-85
2023/04/05 09:40:18;;;;;;;11.10;7.97;;;;;;;17.22;26.60;102196.28;5073302;28;20029;-85
2023/04/05 09:42:47;;;;;;;13.55;7.82;;;;;;;17.50;26.62;102199.94;5073370;28;20077;-85
2023/04/05 09:45:13;;;;;;;14.75;8.80;;;;;;;17.46;26.77;102180.34;5073473;28;20024;-85
2023/04/05 09:47:40;;;;;;;11.10;7.63;;;;;;;17.59;27.40;102183.94;5073280;28;20024;-84
2023/04/05 09:50:19;;;;;;;11.55;8.45;;;;;;;18.24;27.55;102206.38;5055241;28;20528;-83
2023/04/05 09:52:45;;;;;;;11.43;7.93;;;;;;;18.10;26.94;102173.38;5073199;28;20040;-83
2023/04/05 09:55:11;;;;;;;10.00;7.55;;;;;;;18.19;25.33;102195.69;5071910;28;20055;-89
2023/04/05 09:57:42;;;;;;;13.27;8.00;;;;;;;18.24;25.59;102183.22;5073039;28;20465;-84
2023/04/05 10:00:21;;;;;;;10.93;7.72;;;;;;;18.50;25.58;102201.97;5055662;28;20056;-84
2023/04/05 10:02:52;;;;;;;11.60;7.90;;;;;;;18.51;24.88;102173.41;5071716;28;20124;-86
2023/04/05 10:05:45;;;;;;;13.63;7.30;;;;;;;18.67;23.82;102180.53;5072887;28;20131;-85
2023/04/05 10:08:11;;;;;;;9.18;6.70;;;;;;;18.59;22.83;102186.78;5069744;28;20055;-88
2023/04/05 10:10:55;;;;;;;10.57;6.65;;;;;;;18.93;24.84;102187.66;5057170;28;20504;-89
2023/04/05 10:13:23;;;;;;;13.02;6.68;;;;;;;18.82;24.96;102178.75;5073414;28;20052;-90
2023/04/05 10:15:55;;;;;;;10.80;7.35;;;;;;;18.51;23.70;102187.69;5075204;28;20036;-85
2023/04/05 10:18:27;;;;;;;10.70;7.30;;;;;;;18.41;23.49;102168.94;5071926;28;20036;-86
2023/04/05 10:20:56;;;;;;;10.45;7.15;;;;;;;18.59;23.89;102154.66;5072028;28;20035;-86
2023/04/05 10:23:30;;;;;;;11.90;7.07;;;;;;;18.96;26.18;102166.19;5071597;28;20122;-88
2023/04/05 10:26:06;;;;;;;9.88;6.72;;;;;;;19.10;24.38;102155.44;5073280;28;20060;-87
2023/04/05 10:28:34;;;;;;;10.85;7.43;;;;;;;18.87;24.54;102167.13;5073470;28;20469;-85
2023/04/05 10:31:24;;;;;;;11.43;6.85;;;;;;;18.96;25.14;102158.16;5071606;28;20032;-84
2023/04/05 10:34:03;;;;;;;12.63;6.78;;;;;;;18.82;24.87;102143.94;5072738;28;20031;-84
2023/04/05 10:36:48;;;;;;;19.85;10.52;;;;;;;19.11;23.79;102158.13;5072161;28;20469;-85
2023/04/05 10:39:34;;;;;;;19.17;11.85;;;;;;;19.54;24.50;102160.63;5071139;28;20024;-85
2023/04/05 10:42:06;;;;;;;38.15;18.60;;;;;;;19.54;23.34;102151.69;5071410;28;20376;-85
2023/04/05 10:44:35;;;;;;;39.00;19.17;;;;;;;19.43;22.91;102133.84;5072577;28;20036;-86
2023/04/05 10:47:02;;;;;;;15.38;10.27;;;;;;;19.48;22.92;102149.91;5071571;28;20530;-86
2023/04/05 10:49:33;;;;;;;21.45;12.50;;;;;;;19.30;23.56;102160.72;5072141;28;20358;-85
2023/04/05 10:52:00;;;;;;;27.08;16.38;;;;;;;19.01;22.18;102151.00;5072795;28;20040;-85
2023/04/05 10:54:27;;;;;;;47.75;26.40;;;;;;;18.88;23.04;102155.50;5071206;28;20120;-85
2023/04/05 10:56:53;;;;;;;21.23;12.93;;;;;;;18.91;25.02;102151.94;5071032;28;20036;-84
2023/04/05 10:59:20;;;;;;;33.38;21.17;;;;;;;18.99;23.08;102156.38;5054639;28;20138;-84
2023/04/05 11:01:46;;;;;;;20.60;12.77;;;;;;;19.05;24.21;102146.53;5072544;28;20174;-83
2023/04/05 11:04:16;;;;;;;27.90;18.63;;;;;;;19.31;24.55;102139.25;5071126;28;20123;-85
2023/04/05 11:06:42;;;;;;;19.77;13.02;;;;;;;19.18;24.51;102127.72;5087690;28;20044;-85
2023/04/05 11:09:21;;;;;;;17.63;11.07;;;;;;;19.24;24.60;102132.16;5087960;28;20154;-84
2023/04/05 11:11:48;;;;;;;12.23;8.68;;;;;;;19.37;24.01;102133.88;5072460;28;20064;-83
2023/04/05 11:14:35;;;;;;;12.07;7.97;;;;;;;19.05;25.27;102087.59;5072571;28;20033;-83
2023/04/05 11:17:02;;;;;;;11.95;9.13;;;;;;;18.99;22.70;102113.50;5072175;28;20052;-83
2023/04/05 11:19:43;;;;;;;13.10;9.07;;;;;;;19.03;25.88;102127.78;5071089;28;20075;-84
2023/04/05 11:22:09;;;;;;;13.40;9.52;;;;;;;18.96;24.53;102137.63;5071299;28;20083;-84
2023/04/05 11:24:53;;;;;;;16.13;10.15;;;;;;;19.00;24.88;102120.63;5054381;28;20170;-83
2023/04/05 11:27:30;;;;;;;13.82;9.32;;;;;;;19.11;24.23;102111.69;5071972;28;20025;-83